Weather reports worldwide

Advertisment
Fuengirola, Spain (8480): temperature & dewpoint: 07.12.2018 10:00:00 - 13.12.2018 10:00:00 (CET)Fuengirola, Spain (8480): wind speed & gusts: 07.12.2018 10:00:00 - 13.12.2018 10:00:00 (CET)Fuengirola, Spain (8480): wind direction: 07.12.2018 10:00:00 - 13.12.2018 10:00:00 (CET)Fuengirola, Spain (8480): precipitation: 07.12.2018 10:00:00 - 13.12.2018 10:00:00 (CET)
Date & Time tt [°C] td [°C] ff [km/h] ff [kn] fx [km/h] fx [kn] dd rr [mm]
13.12.2018 10:00:00 16,1 14,6 12 6 39 21 W 0,0
13.12.2018 09:00:00 16,2 14,0 5 3 37 20 W 0,0
13.12.2018 08:00:00 16,0 13,5 9 5 36 19 W 0,0
13.12.2018 07:00:00 16,4 13,3 5 3 23 12 WSW -
13.12.2018 06:00:00 15,2 11,8 2 1 11 6 NW 0,0
13.12.2018 05:00:00 14,4 11,0 4 2 10 6 W 0,0
13.12.2018 04:00:00 14,6 10,8 3 2 14 8 NW 0,0
13.12.2018 03:00:00 14,5 10,5 6 4 14 8 W 0,0
13.12.2018 02:00:00 15,0 10,6 4 2 13 7 WNW 0,0
13.12.2018 01:00:00 15,2 10,6 7 4 20 11 W -
13.12.2018 00:00:00 15,7 10,7 4 2 10 6 WNW 0,0
12.12.2018 23:00:00 15,8 10,6 0 0 12 7 N 0,0
12.12.2018 22:00:00 16,4 11,8 1 1 13 7 WSW 0,0
12.12.2018 21:00:00 17,4 11,9 4 2 17 9 SSW 0,0
12.12.2018 20:00:00 17,3 11,6 3 1 16 8 WNW 0,0
12.12.2018 19:00:00 17,7 11,7 3 2 21 11 WSW -
12.12.2018 18:00:00 18,6 11,4 2 1 15 8 N 0,0
12.12.2018 17:00:00 19,7 12,5 3 2 14 8 WSW 0,0
12.12.2018 16:00:00 20,3 13,0 4 2 22 12 W 0,0
12.12.2018 15:00:00 19,8 13,0 3 1 16 9 W 0,0
12.12.2018 14:00:00 - - - - - - - -
12.12.2018 13:00:00 - - - - - - - -
12.12.2018 12:00:00 18,3 12,5 6 4 25 14 W 0,0
12.12.2018 11:00:00 17,7 12,4 5 3 20 11 W 0,0
12.12.2018 10:00:00 16,4 12,6 5 3 21 11 WNW 0,0
12.12.2018 09:00:00 15,2 12,0 5 3 16 9 WNW 0,0
12.12.2018 08:00:00 15,3 11,7 6 3 18 10 W 0,0
12.12.2018 07:00:00 15,1 11,5 6 3 20 11 W -
12.12.2018 06:00:00 14,6 12,1 5 3 16 9 NW 0,0
12.12.2018 05:00:00 15,1 12,4 6 3 15 8 W 0,0
12.12.2018 04:00:00 15,2 12,3 5 3 16 9 WNW 0,0
12.12.2018 03:00:00 15,7 12,6 5 3 16 9 W 0,0
12.12.2018 02:00:00 15,8 12,9 7 4 15 8 W 0,0
12.12.2018 01:00:00 15,4 12,5 5 3 16 9 NW -
12.12.2018 00:00:00 15,2 12,3 5 3 14 7 NW 0,0
11.12.2018 23:00:00 14,8 12,3 2 1 9 5 W 0,0
11.12.2018 22:00:00 15,3 12,8 5 3 11 6 W 0,0
11.12.2018 21:00:00 15,4 13,3 3 2 9 5 NW 0,0
11.12.2018 20:00:00 16,2 14,0 4 2 16 9 W 0,0
11.12.2018 19:00:00 16,2 14,0 5 3 14 7 W -
11.12.2018 18:00:00 16,8 14,1 8 4 18 10 W 0,0
11.12.2018 17:00:00 17,1 14,2 5 3 18 10 W 0,0
11.12.2018 16:00:00 17,2 14,3 5 3 19 11 WSW 0,0
11.12.2018 15:00:00 16,6 14,3 10 5 21 12 SSW 0,0
11.12.2018 14:00:00 17,4 14,1 6 3 9 5 SSE 0,0
11.12.2018 13:00:00 16,6 13,5 4 2 8 5 ESE -
11.12.2018 12:00:00 15,9 13,9 2 1 9 5 WNW 0,0
11.12.2018 11:00:00 15,4 13,6 1 1 9 5 WNW 0,0
11.12.2018 10:00:00 15,0 13,2 5 3 10 5 NW 0,0
11.12.2018 09:00:00 14,4 12,6 6 3 13 7 NW 0,0
11.12.2018 08:00:00 14,2 12,6 3 2 10 5 NW 0,0
11.12.2018 07:00:00 14,2 12,6 3 1 9 5 NW -
11.12.2018 06:00:00 14,7 13,1 4 2 13 7 NW 0,0
11.12.2018 05:00:00 14,8 13,2 8 4 15 8 E 0,0
11.12.2018 04:00:00 14,2 12,4 4 2 8 5 WNW 0,0
11.12.2018 03:00:00 14,2 12,1 4 2 9 5 NW 0,0
11.12.2018 02:00:00 13,7 11,1 5 3 10 6 NW 0,0
11.12.2018 01:00:00 13,2 10,2 6 3 9 5 NW -
11.12.2018 00:00:00 13,5 10,5 5 3 16 9 NNW 0,0
10.12.2018 23:00:00 14,0 10,0 2 1 8 4 N 0,0
10.12.2018 22:00:00 15,0 10,8 3 2 14 7 NNW 0,0
10.12.2018 21:00:00 16,8 12,9 9 5 16 8 ENE 0,0
10.12.2018 20:00:00 17,0 12,5 9 5 14 8 E 0,0
10.12.2018 19:00:00 17,1 12,4 8 4 18 10 ENE -
10.12.2018 18:00:00 17,7 12,8 10 5 20 11 ENE 0,0
10.12.2018 17:00:00 18,4 12,8 14 7 24 13 E 0,0
10.12.2018 16:00:00 18,2 14,9 11 6 20 11 E 0,0
10.12.2018 15:00:00 17,5 15,3 9 5 15 8 E 0,0
10.12.2018 14:00:00 17,3 16,0 12 6 15 8 ESE 0,0
10.12.2018 13:00:00 16,9 15,6 11 6 17 9 ESE -
10.12.2018 12:00:00 16,2 15,2 9 5 15 8 E 0,0
10.12.2018 11:00:00 15,5 14,9 6 4 12 6 ESE 0,0
10.12.2018 10:00:00 14,3 13,0 7 4 12 6 E 0,0
10.12.2018 09:00:00 12,1 10,5 4 2 8 5 NNW 0,0
10.12.2018 08:00:00 11,5 9,8 4 2 8 4 NW 0,0
10.12.2018 07:00:00 11,7 10,0 4 2 7 4 NW -
10.12.2018 06:00:00 11,8 9,7 4 2 15 8 NW 0,0
10.12.2018 05:00:00 11,9 9,8 4 2 8 4 NNW 0,0
10.12.2018 04:00:00 12,2 10,1 5 3 7 4 NW 0,0
10.12.2018 03:00:00 12,7 10,6 3 2 6 4 NW 0,0
10.12.2018 02:00:00 12,7 10,6 4 2 6 3 NW 0,0
10.12.2018 01:00:00 13,4 11,3 0 0 11 6 NNE -
10.12.2018 00:00:00 13,6 11,8 8 5 13 7 WNW 0,0
09.12.2018 23:00:00 14,1 12,7 5 3 10 5 WNW 0,0
09.12.2018 22:00:00 14,3 12,9 1 0 9 5 NW 0,0
09.12.2018 21:00:00 14,8 13,3 1 1 10 5 NW 0,0
09.12.2018 20:00:00 15,6 14,1 1 1 4 2 NW 0,0
09.12.2018 19:00:00 16,4 14,9 0 0 4 2 WSW -
09.12.2018 18:00:00 16,9 15,1 1 1 4 2 SSW 0,0
09.12.2018 17:00:00 17,7 15,7 2 1 6 3 S 0,0
09.12.2018 16:00:00 17,4 15,0 4 2 9 5 SE 0,0
09.12.2018 15:00:00 17,8 15,2 7 4 9 5 SSE 0,0
09.12.2018 14:00:00 17,5 15,1 5 3 11 6 SSE 0,0
09.12.2018 13:00:00 16,9 14,5 9 5 11 6 SE -
09.12.2018 12:00:00 16,3 14,0 1 1 4 2 S 0,0
09.12.2018 11:00:00 15,3 13,0 1 1 8 4 ESE 0,0
09.12.2018 10:00:00 14,1 11,8 5 3 10 5 NW 0,0
09.12.2018 09:00:00 13,1 10,8 5 3 12 6 WNW 0,0
09.12.2018 08:00:00 13,0 10,9 5 3 11 6 NW 0,0
09.12.2018 07:00:00 13,0 10,9 6 4 12 6 NW -
09.12.2018 06:00:00 13,2 10,9 5 3 9 5 NW 0,0
09.12.2018 05:00:00 13,5 11,0 4 2 7 4 NW 0,0
09.12.2018 04:00:00 14,3 11,6 4 2 9 5 NW 0,0
09.12.2018 03:00:00 15,9 13,4 5 3 18 10 NE 0,0
09.12.2018 02:00:00 16,5 13,6 11 6 19 11 E 0,0
09.12.2018 01:00:00 16,6 13,5 13 7 19 10 E -
09.12.2018 00:00:00 15,6 12,4 8 5 14 7 ENE 0,0
08.12.2018 23:00:00 16,8 13,3 9 5 16 9 ENE 0,0
08.12.2018 22:00:00 17,1 13,4 8 4 16 9 ENE 0,0
08.12.2018 21:00:00 17,2 13,5 9 5 16 9 ENE 0,0
08.12.2018 20:00:00 16,9 13,8 9 5 19 10 ENE 0,0
08.12.2018 19:00:00 16,9 15,3 13 7 19 11 E -
08.12.2018 18:00:00 18,0 15,1 13 7 22 12 ESE 0,0
08.12.2018 17:00:00 18,2 14,7 15 8 22 12 E 0,0
08.12.2018 16:00:00 17,9 16,8 13 7 19 10 ESE 0,0
08.12.2018 15:00:00 17,8 16,7 12 6 23 13 E 0,0
08.12.2018 14:00:00 18,4 15,8 16 9 34 18 ESE 0,0
08.12.2018 13:00:00 18,5 15,0 22 12 30 16 SE -
08.12.2018 12:00:00 20,4 13,1 15 8 27 14 ESE 0,0
08.12.2018 11:00:00 20,9 10,1 3 2 17 9 NW 0,0
08.12.2018 10:00:00 20,9 10,4 3 2 44 24 NW 0,0
08.12.2018 09:00:00 19,9 11,1 9 5 37 20 N 0,0
08.12.2018 08:00:00 18,1 11,0 3 2 25 13 S 0,0
08.12.2018 07:00:00 18,9 10,2 8 4 23 12 WNW -
08.12.2018 06:00:00 19,1 10,7 11 6 28 15 W 0,0
08.12.2018 05:00:00 19,5 10,5 6 3 18 10 W 0,0
08.12.2018 04:00:00 19,4 10,9 6 3 21 12 WNW 0,0
08.12.2018 03:00:00 18,7 10,3 4 2 25 14 NW 0,0
08.12.2018 02:00:00 18,8 10,1 4 2 19 11 NNW 0,0
08.12.2018 01:00:00 17,8 11,4 1 1 17 9 E -
08.12.2018 00:00:00 14,5 14,3 3 2 29 16 W 0,0
07.12.2018 23:00:00 14,1 13,9 3 2 10 5 ENE 0,0
07.12.2018 22:00:00 14,3 14,0 2 1 11 6 N 0,0
07.12.2018 21:00:00 14,8 14,5 5 3 23 12 NE 0,0
07.12.2018 20:00:00 14,8 14,5 16 9 29 15 ENE 0,0
07.12.2018 19:00:00 15,1 14,5 12 6 16 8 ENE -
07.12.2018 18:00:00 15,6 14,5 2 1 6 4 W 0,0
07.12.2018 17:00:00 15,6 14,8 2 1 17 9 W 0,0
07.12.2018 16:00:00 15,0 14,4 8 5 21 12 SSW 0,0
07.12.2018 15:00:00 14,6 14,0 6 4 16 8 SSW 0,0
07.12.2018 14:00:00 14,9 14,4 8 5 13 7 S 0,0
07.12.2018 13:00:00 14,3 14,0 6 3 10 5 S -
07.12.2018 12:00:00 13,8 13,6 2 1 8 4 SE 0,0
07.12.2018 11:00:00 13,6 13,4 2 1 10 5 W 0,0
07.12.2018 10:00:00 13,2 13,0 5 3 10 5 WNW 0,0

tt = temperature
td = dewpoint
ff = wind speed
fx = gusts
dd = wind direction
rr = precipitation

Next stations